Time;durP1;ratioP1;P1;durP2;ratioP2;P2;SDS_P1;SDS_P2;PMS_P1;PMS_P2;Temp;Humidity;BMP_temperature;BMP_pressure;BME280_temperature;BME280_humidity;BME280_pressure;Samples;Min_cycle;Max_cycle;Signal;HPM_P1;HPM_P2
2022/08/18 00:00:46;;;;;;;;;10.75;9.25;;;;;23.07;59.33;100524.00;5068448;28;45794;-81
2022/08/18 00:03:12;;;;;;;;;13.50;13.25;;;;;23.07;59.26;100524.00;5058985;28;47628;-79
2022/08/18 00:05:37;;;;;;;;;13.50;12.75;;;;;23.09;59.75;100527.31;5051107;28;48197;-80
2022/08/18 00:08:04;;;;;;;;;11.75;11.75;;;;;23.11;59.58;100524.44;5062655;28;45730;-79
2022/08/18 00:10:30;;;;;;;;;11.50;11.00;;;;;23.11;59.30;100524.44;5082899;27;45786;-80
2022/08/18 00:12:56;;;;;;;;;13.25;13.00;;;;;23.13;59.66;100519.75;5066693;27;45951;-80
2022/08/18 00:15:22;;;;;;;;;11.50;10.50;;;;;23.13;59.64;100522.41;5070839;28;48334;-80
2022/08/18 00:17:47;;;;;;;;;12.00;11.50;;;;;23.11;59.47;100516.41;5085016;27;45950;-80
2022/08/18 00:20:22;;;;;;;;;11.50;11.50;;;;;23.10;58.96;100523.63;5073702;27;45687;-79
2022/08/18 00:22:48;;;;;;;;;13.00;13.00;;;;;23.09;58.96;100519.31;5085392;27;46622;-80
2022/08/18 00:25:16;;;;;;;;;12.25;12.00;;;;;23.09;59.16;100521.97;5081553;27;46233;-77
2022/08/18 00:27:42;;;;;;;;;12.00;11.25;;;;;23.09;59.31;100524.66;5069387;27;45744;-82
2022/08/18 00:30:11;;;;;;;;;16.25;13.75;;;;;23.06;59.13;100524.19;5079050;27;45685;-79
2022/08/18 00:32:43;;;;;;;;;13.00;12.50;;;;;23.01;59.63;100517.59;5081010;27;47504;-80
2022/08/18 00:35:19;;;;;;;;;12.25;12.25;;;;;23.02;59.61;100524.59;5070220;28;47249;-78
2022/08/18 00:37:46;;;;;;;;;12.25;12.00;;;;;23.02;59.69;100513.91;5089919;27;45771;-77
2022/08/18 00:40:17;;;;;;;;;13.00;13.00;;;;;23.02;59.50;100518.41;5104683;27;45418;-77
2022/08/18 00:42:47;;;;;;;;;15.75;13.00;;;;;22.97;59.64;100510.97;5077623;27;46756;-79
2022/08/18 00:45:17;;;;;;;;;13.25;12.00;;;;;22.96;59.36;100514.66;5073254;27;46046;-76
2022/08/18 00:47:42;;;;;;;;;12.00;10.75;;;;;22.94;59.36;100519.34;5081980;27;45683;-82
2022/08/18 00:50:12;;;;;;;;;15.00;13.50;;;;;22.93;59.80;100523.06;5074696;27;45924;-81
2022/08/18 00:52:37;;;;;;;;;12.25;12.25;;;;;22.92;59.30;100518.75;5089792;27;45610;-81
2022/08/18 00:55:03;;;;;;;;;14.50;13.25;;;;;22.91;59.81;100525.09;5092192;27;45728;-77
2022/08/18 00:57:30;;;;;;;;;14.75;12.25;;;;;22.89;59.21;100528.97;5090957;27;45776;-80
2022/08/18 01:00:06;;;;;;;;;10.75;10.00;;;;;22.89;59.13;100523.63;5092220;27;45700;-80
2022/08/18 01:02:36;;;;;;;;;13.50;11.75;;;;;22.87;59.51;100539.88;5058562;27;46962;-81
2022/08/18 01:05:16;;;;;;;;;12.00;11.50;;;;;22.89;59.64;100539.66;5085660;27;46140;-82
2022/08/18 01:07:44;;;;;;;;;16.50;13.50;;;;;22.86;59.17;100532.84;5091322;27;45716;-81
2022/08/18 01:10:15;;;;;;;;;12.25;12.00;;;;;22.82;59.36;100525.41;5091311;27;45765;-81
2022/08/18 01:12:40;;;;;;;;;13.75;13.00;;;;;22.78;59.67;100527.63;5072967;27;48647;-77
2022/08/18 01:15:07;;;;;;;;;13.50;12.75;;;;;22.73;59.98;100526.53;5089752;27;46331;-80
2022/08/18 01:23:14;;;;;;;;;14.50;14.25;;;;;22.60;59.35;100519.19;5089935;27;46261;-82
2022/08/18 01:25:58;;;;;;;;;15.50;12.00;;;;;22.59;60.09;100518.38;5091328;27;46137;-82
2022/08/18 01:28:25;;;;;;;;;14.25;11.75;;;;;22.54;59.99;100517.28;5090307;27;45554;-81
2022/08/18 01:30:57;;;;;;;;;14.50;13.00;;;;;22.53;59.96;100523.63;5090999;27;45927;-79
2022/08/18 01:33:31;;;;;;;;;12.50;11.00;;;;;22.49;59.85;100523.19;5077432;27;46648;-79
2022/08/18 01:36:03;;;;;;;;;15.50;13.75;;;;;22.48;60.65;100520.69;5060598;27;46442;-79
2022/08/18 01:38:30;;;;;;;;;13.50;13.50;;;;;22.46;60.51;100522.72;5065833;28;45740;-79
2022/08/18 01:40:57;;;;;;;;;15.00;14.00;;;;;22.39;60.64;100530.69;5071812;27;45613;-81
2022/08/18 01:43:23;;;;;;;;;13.25;12.75;;;;;22.35;60.70;100528.56;5071312;27;45776;-80
2022/08/18 01:45:49;;;;;;;;;15.75;14.00;;;;;22.33;60.17;100543.94;5071242;27;45851;-78
2022/08/18 01:48:15;;;;;;;;;14.25;13.75;;;;;22.30;61.18;100531.78;5059976;28;45724;-78
2022/08/18 01:50:42;;;;;;;;;13.50;13.25;;;;;22.28;61.17;100536.50;5087651;27;45723;-82
2022/08/18 01:53:10;;;;;;;;;15.25;13.50;;;;;22.22;60.93;100537.25;5087693;27;46570;-82
2022/08/18 01:55:38;;;;;;;;;16.25;15.00;;;;;22.18;61.55;100535.97;5088278;27;46136;-81
2022/08/18 01:58:06;;;;;;;;;15.50;13.25;;;;;22.12;61.78;100548.22;5094801;27;45628;-81
2022/08/18 02:00:33;;;;;;;;;14.75;13.25;;;;;22.04;61.81;100547.47;5094931;27;45921;-82
2022/08/18 02:03:00;;;;;;;;;16.00;16.00;;;;;21.97;61.94;100552.69;5084895;27;47453;-80
2022/08/18 02:05:34;;;;;;;;;19.75;18.00;;;;;21.90;62.13;100553.59;5094456;27;46110;-82
2022/08/18 02:07:59;;;;;;;;;14.50;12.50;;;;;21.84;62.02;100539.16;5075958;27;46027;-79
2022/08/18 02:10:26;;;;;;;;;13.75;13.75;;;;;21.81;62.67;100542.16;5066415;28;45726;-81
2022/08/18 02:12:51;;;;;;;;;13.25;12.50;;;;;21.80;62.58;100545.88;5078226;27;45956;-81
2022/08/18 02:15:17;;;;;;;;;14.25;13.25;;;;;21.75;62.63;100545.59;5093483;27;45820;-77
2022/08/18 02:17:44;;;;;;;;;14.75;13.25;;;;;21.70;62.76;100546.13;5094624;27;45733;-81
2022/08/18 02:20:15;;;;;;;;;14.75;12.75;;;;;21.64;62.78;100551.38;5093782;27;46046;-81
2022/08/18 02:22:42;;;;;;;;;14.75;14.75;;;;;21.56;63.12;100546.13;5093767;27;46065;-80
2022/08/18 02:25:08;;;;;;;;;14.00;13.25;;;;;21.48;62.82;100562.19;5092663;27;46014;-80
2022/08/18 02:27:34;;;;;;;;;12.25;11.00;;;;;21.35;62.67;100562.81;5079612;27;45704;-78
2022/08/18 02:30:03;;;;;;;;;13.00;12.50;;;;;21.24;62.63;100561.38;5092248;27;45576;-80
2022/08/18 02:32:30;;;;;;;;;14.00;14.00;;;;;21.17;63.23;100562.28;5092901;27;47230;-80
2022/08/18 02:34:55;;;;;;;;;14.25;13.00;;;;;21.06;62.91;100562.66;5080438;27;46318;-82
2022/08/18 02:37:21;;;;;;;;;14.00;14.00;;;;;20.96;63.07;100565.56;5067383;27;45943;-79
2022/08/18 02:39:47;;;;;;;;;12.50;11.50;;;;;20.90;63.54;100560.94;5054108;28;45856;-79
2022/08/18 02:42:13;;;;;;;;;13.75;13.00;;;;;20.86;63.45;100559.66;5073733;27;46602;-80
2022/08/18 02:44:38;;;;;;;;;12.75;12.50;;;;;20.84;63.06;100567.81;5086483;27;46505;-79
2022/08/18 02:47:04;;;;;;;;;9.75;9.25;;;;;20.80;63.92;100552.34;5081363;27;45733;-80
2022/08/18 02:49:29;;;;;;;;;12.75;12.50;;;;;20.73;63.73;100549.56;5079058;27;45858;-76
2022/08/18 02:51:55;;;;;;;;;13.50;11.50;;;;;20.72;63.68;100552.44;5087687;27;46572;-75
2022/08/18 02:54:22;;;;;;;;;12.00;11.75;;;;;20.66;63.67;100543.31;5078893;28;45632;-79
2022/08/18 02:56:50;;;;;;;;;14.75;14.25;;;;;20.68;63.78;100551.09;5085891;27;45862;-77
2022/08/18 02:59:26;;;;;;;;;11.75;11.75;;;;;20.68;63.81;100549.25;5041970;28;45820;-77
2022/08/18 03:01:54;;;;;;;;;11.00;10.75;;;;;20.66;63.82;100545.97;5066489;27;45746;-79
2022/08/18 03:04:25;;;;;;;;;12.75;12.50;;;;;20.66;63.91;100545.97;5074006;27;46995;-81
2022/08/18 03:06:52;;;;;;;;;12.25;11.00;;;;;20.63;63.92;100546.28;5074648;27;45956;-78
2022/08/18 03:09:17;;;;;;;;;12.50;12.25;;;;;20.61;63.95;100547.50;5069454;28;45725;-81
2022/08/18 03:11:44;;;;;;;;;12.00;11.00;;;;;20.58;64.05;100546.00;5070552;28;45755;-80
2022/08/18 03:14:10;;;;;;;;;13.00;12.50;;;;;20.52;64.12;100541.38;5073301;28;47527;-80
2022/08/18 03:16:39;;;;;;;;;12.75;10.25;;;;;20.51;64.27;100537.06;5072635;28;45722;-79
2022/08/18 03:19:05;;;;;;;;;15.25;12.00;;;;;20.49;64.51;100539.06;5073519;28;45656;-80
2022/08/18 03:21:34;;;;;;;;;10.00;10.00;;;;;20.45;64.48;100530.63;5069945;28;46164;-82
2022/08/18 03:24:00;;;;;;;;;10.75;10.75;;;;;20.46;64.07;100529.59;5074233;27;46492;-80
2022/08/18 03:26:26;;;;;;;;;14.25;12.00;;;;;20.49;64.32;100536.41;5075521;27;45840;-77
2022/08/18 03:28:53;;;;;;;;;13.00;12.00;;;;;20.48;64.10;100530.25;5073444;28;45568;-78
2022/08/18 03:31:22;;;;;;;;;13.75;13.50;;;;;20.47;64.14;100528.59;5075159;27;45730;-80
2022/08/18 03:33:48;;;;;;;;;14.25;12.50;;;;;20.47;64.15;100525.94;5074610;27;46178;-79
2022/08/18 03:36:18;;;;;;;;;13.50;11.50;;;;;20.47;64.16;100533.09;5042419;28;45718;-79
2022/08/18 03:38:47;;;;;;;;;10.50;10.50;;;;;20.46;64.16;100529.59;5073277;27;45919;-79
2022/08/18 03:41:15;;;;;;;;;13.25;13.00;;;;;20.49;64.36;100533.75;5073092;27;46974;-78
2022/08/18 03:43:41;;;;;;;;;11.25;11.00;;;;;20.45;64.25;100538.59;5072755;28;46241;-80
2022/08/18 03:46:10;;;;;;;;;9.75;9.50;;;;;20.45;64.15;100535.09;5071316;27;45841;-82
2022/08/18 03:48:38;;;;;;;;;10.75;10.00;;;;;20.46;63.75;100534.91;5073537;27;45866;-81
2022/08/18 03:51:07;;;;;;;;;12.50;11.75;;;;;20.44;64.24;100536.09;5073476;27;47413;-82
2022/08/18 03:53:34;;;;;;;;;10.00;9.25;;;;;20.44;63.95;100534.28;5071393;27;46148;-82
2022/08/18 03:55:59;;;;;;;;;10.25;9.25;;;;;20.41;64.01;100528.44;5054669;28;45752;-81
2022/08/18 03:58:26;;;;;;;;;12.25;12.25;;;;;20.39;64.01;100530.47;5054543;28;45643;-82
2022/08/18 04:00:51;;;;;;;;;9.50;8.00;;;;;20.35;64.09;100537.16;5073439;27;46020;-79
2022/08/18 04:03:16;;;;;;;;;11.00;11.00;;;;;20.28;63.78;100531.66;5072749;27;46252;-80
2022/08/18 04:05:42;;;;;;;;;11.00;9.50;;;;;20.28;64.01;100521.03;5055062;28;45686;-81
2022/08/18 04:08:07;;;;;;;;;12.00;11.25;;;;;20.27;63.75;100515.88;5073360;27;46174;-78
2022/08/18 04:10:34;;;;;;;;;11.00;10.00;;;;;20.31;63.99;100512.72;5066069;27;45670;-79
2022/08/18 04:12:59;;;;;;;;;10.25;10.25;;;;;20.32;63.89;100517.03;5072654;28;46154;-82
2022/08/18 04:15:25;;;;;;;;;9.50;9.50;;;;;20.35;63.80;100529.19;5067332;27;45706;-80
2022/08/18 04:17:50;;;;;;;;;12.50;12.00;;;;;20.34;64.03;100516.88;5073494;27;45873;-79
2022/08/18 04:20:16;;;;;;;;;10.00;9.50;;;;;20.36;64.06;100522.81;5074415;27;45965;-80
2022/08/18 04:22:41;;;;;;;;;13.25;12.50;;;;;20.39;63.52;100527.81;5072766;27;47568;-79
2022/08/18 04:25:08;;;;;;;;;10.25;10.25;;;;;20.38;63.93;100511.03;5073266;27;45669;-79
2022/08/18 04:27:35;;;;;;;;;11.25;10.25;;;;;20.38;63.93;100519.00;5070714;27;45783;-82
2022/08/18 04:30:01;;;;;;;;;11.50;11.25;;;;;20.38;64.18;100519.00;5054088;28;48741;-79
2022/08/18 04:32:29;;;;;;;;;10.25;10.25;;;;;20.38;63.65;100519.00;5072537;27;45748;-81
2022/08/18 04:34:54;;;;;;;;;13.25;12.50;;;;;20.40;64.00;100529.47;5061850;28;45718;-81
2022/08/18 04:37:19;;;;;;;;;13.25;11.75;;;;;20.39;64.15;100527.81;5085637;27;45813;-82
2022/08/18 04:39:45;;;;;;;;;11.25;10.75;;;;;20.39;64.02;100533.13;5091697;27;47704;-78
2022/08/18 04:42:11;;;;;;;;;11.50;10.50;;;;;20.36;63.92;100534.31;5092196;27;45902;-80
2022/08/18 04:44:36;;;;;;;;;12.25;10.25;;;;;20.36;64.27;100534.31;5065668;27;45673;-81
2022/08/18 04:47:03;;;;;;;;;11.75;10.50;;;;;20.38;63.93;100536.81;5066945;27;46070;-82
2022/08/18 04:49:30;;;;;;;;;13.50;10.75;;;;;20.39;64.03;100530.47;5090815;27;46581;-80
2022/08/18 04:54:41;;;;;;;;;8.75;8.75;;;;;20.41;64.12;100539.09;5081325;27;45749;-81
2022/08/18 04:57:12;;;;;;;;;12.25;11.75;;;;;20.43;63.87;100537.94;5091056;27;45710;-81
2022/08/18 04:59:39;;;;;;;;;12.75;11.75;;;;;20.46;63.67;100539.41;5091928;27;45721;-82
2022/08/18 05:02:07;;;;;;;;;61.25;49.00;;;;;20.47;63.90;100547.22;5086343;27;46277;-78
2022/08/18 05:04:37;;;;;;;;;27.00;26.75;;;;;20.47;63.89;100552.53;5092077;27;45655;-81
2022/08/18 05:07:09;;;;;;;;;12.75;12.00;;;;;20.47;63.78;100551.72;5090410;27;45609;-81
2022/08/18 05:09:35;;;;;;;;;14.00;13.25;;;;;20.51;64.02;100550.38;5091929;27;45567;-81
2022/08/18 05:12:03;;;;;;;;;13.50;12.75;;;;;20.49;63.74;100553.22;5089852;27;46019;-81
2022/08/18 05:14:28;;;;;;;;;16.25;12.25;;;;;20.49;63.76;100558.53;5090937;27;45824;-80
2022/08/18 05:16:58;;;;;;;;;12.00;12.00;;;;;20.50;63.82;100570.84;5053165;27;45930;-80
2022/08/18 05:19:25;;;;;;;;;14.00;11.50;;;;;20.47;63.90;100562.34;5076186;27;46935;-81
2022/08/18 05:21:52;;;;;;;;;15.75;13.75;;;;;20.50;63.81;100578.84;5086795;27;48521;-81
2022/08/18 05:24:19;;;;;;;;;16.75;14.75;;;;;20.48;63.59;100564.84;5090400;27;45593;-80
2022/08/18 05:26:44;;;;;;;;;14.00;12.75;;;;;20.50;63.85;100570.00;5088399;27;45547;-79
2022/08/18 05:29:11;;;;;;;;;14.25;13.75;;;;;20.49;63.80;100571.84;5063794;28;47547;-81
2022/08/18 05:31:36;;;;;;;;;13.25;12.75;;;;;20.48;63.73;100574.66;5088027;27;46041;-82
2022/08/18 05:34:03;;;;;;;;;12.25;10.50;;;;;20.43;63.85;100569.88;5089021;27;45793;-80
2022/08/18 05:36:50;;;;;;;;;6.25;5.75;;;;;20.44;64.19;100578.69;5076092;27;45792;-81
2022/08/18 05:39:50;;;;;;;;;12.75;12.75;;;;;20.41;64.12;100577.19;5094519;27;45889;-80
2022/08/18 05:42:18;;;;;;;;;11.25;10.50;;;;;20.38;64.02;100584.69;5094251;27;46142;-78
2022/08/18 05:44:47;;;;;;;;;11.50;11.00;;;;;20.30;64.10;100582.84;5095595;27;45738;-76
2022/08/18 05:47:21;;;;;;;;;14.00;14.00;;;;;20.22;64.18;100596.22;5084701;27;45888;-79
2022/08/18 05:49:48;;;;;;;;;12.00;11.00;;;;;20.13;64.62;100595.38;5075104;28;45640;-81
2022/08/18 05:52:32;;;;;;;;;14.25;13.25;;;;;20.10;64.38;100593.09;5067328;28;45680;-81
2022/08/18 05:57:58;;;;;;;;;12.75;10.75;;;;;20.11;64.20;100602.72;5074968;28;45677;-81
2022/08/18 06:00:26;;;;;;;;;13.75;12.00;;;;;20.13;64.64;100611.34;5091103;27;45697;-79
2022/08/18 06:03:02;;;;;;;;;13.75;13.75;;;;;20.13;64.48;100605.22;5094554;27;45727;-82
2022/08/18 06:05:36;;;;;;;;;15.00;13.50;;;;;20.10;64.77;100602.88;5094142;27;45836;-82
2022/08/18 06:08:07;;;;;;;;;13.25;13.25;;;;;20.07;64.59;100600.59;5090076;27;45597;-81
2022/08/18 06:10:35;;;;;;;;;13.50;12.25;;;;;20.10;64.69;100605.56;5076670;27;47678;-76
2022/08/18 06:13:01;;;;;;;;;13.25;13.25;;;;;20.11;64.55;100597.41;5075420;27;46302;-82
2022/08/18 06:15:57;;;;;;;;;14.50;14.25;;;;;20.16;64.63;100601.38;5060139;28;45545;-80
2022/08/18 06:18:48;;;;;;;;;15.50;14.25;;;;;20.19;64.66;100601.06;5088237;27;45973;-82
2022/08/18 06:21:39;;;;;;;;;15.75;14.50;;;;;20.22;64.81;100598.03;5059570;28;46532;-79
2022/08/18 06:24:19;;;;;;;;;15.00;14.25;;;;;20.22;64.75;100592.72;5086798;27;46229;-79
2022/08/18 06:27:18;;;;;;;;;16.25;15.00;;;;;20.29;64.49;100607.00;5074717;27;45782;-77
2022/08/18 06:30:03;;;;;;;;;17.25;14.00;;;;;20.34;64.74;100610.00;5090710;27;45672;-82
2022/08/18 06:32:56;;;;;;;;;14.25;13.75;;;;;20.37;64.51;100612.31;5088120;27;46511;-78
2022/08/18 06:35:39;;;;;;;;;15.25;14.50;;;;;20.42;64.39;100609.97;5050214;28;46094;-82
2022/08/18 06:41:14;;;;;;;;;19.75;16.25;;;;;20.50;64.50;100615.28;5077813;28;45606;-80
2022/08/18 06:43:52;;;;;;;;;17.75;16.00;;;;;20.53;64.27;100610.41;5066279;28;46223;-78
2022/08/18 06:46:23;;;;;;;;;26.25;25.00;;;;;20.63;64.01;100617.34;5062401;28;46522;-81
2022/08/18 06:49:02;;;;;;;;;25.75;24.50;;;;;20.66;64.25;100617.03;5073471;27;47142;-80
2022/08/18 06:51:28;;;;;;;;;24.25;23.00;;;;;20.70;64.18;100621.00;5079119;27;45582;-79
2022/08/18 06:54:15;;;;;;;;;28.50;27.00;;;;;20.76;63.89;100623.78;5093900;27;46381;-81
2022/08/18 06:56:50;;;;;;;;;28.00;26.50;;;;;20.82;64.34;100633.75;5094102;27;45983;-80
2022/08/18 06:59:21;;;;;;;;;25.00;23.00;;;;;20.86;63.88;100635.06;5057521;27;45649;-81
2022/08/18 07:01:55;;;;;;;;;27.00;26.00;;;;;20.91;63.87;100631.84;5068559;27;45836;-81
2022/08/18 07:04:45;;;;;;;;;24.50;22.75;;;;;20.98;63.96;100634.66;5074255;27;45677;-81
2022/08/18 07:07:31;;;;;;;;;26.75;25.00;;;;;21.01;63.87;100635.13;5073755;27;45755;-81
2022/08/18 07:09:57;;;;;;;;;25.00;23.00;;;;;21.04;63.90;100632.13;5088453;27;45518;-79
2022/08/18 07:12:25;;;;;;;;;29.25;27.75;;;;;21.08;63.94;100635.25;5075681;27;45650;-81
2022/08/18 07:14:55;;;;;;;;;30.00;25.75;;;;;21.14;63.59;100638.09;5084078;27;47317;-81
2022/08/18 07:17:24;;;;;;;;;23.75;22.00;;;;;21.19;63.53;100629.56;5082067;27;46193;-77
2022/08/18 07:20:04;;;;;;;;;28.25;24.75;;;;;21.24;63.57;100630.69;5080966;27;45570;-80
2022/08/18 07:22:30;;;;;;;;;24.00;22.50;;;;;21.26;63.38;100627.84;5088229;27;45811;-79
2022/08/18 07:24:59;;;;;;;;;24.50;22.25;;;;;21.34;63.50;100623.28;5063558;28;48283;-80
2022/08/18 07:27:48;;;;;;;;;21.50;19.75;;;;;21.39;63.01;100628.06;5087157;27;45687;-82
2022/08/18 07:30:18;;;;;;;;;22.75;20.00;;;;;21.44;63.31;100625.69;5067954;28;45677;-81
2022/08/18 07:32:58;;;;;;;;;20.00;17.00;;;;;21.50;63.11;100632.16;5055646;28;45532;-78
2022/08/18 07:35:44;;;;;;;;;24.25;23.25;;;;;21.54;62.83;100626.28;5063757;28;46698;-81
2022/08/18 07:38:16;;;;;;;;;25.50;22.50;;;;;21.58;62.59;100632.94;5099625;27;46331;-79
2022/08/18 07:40:54;;;;;;;;;26.50;20.25;;;;;21.60;63.10;100633.56;5100598;27;45698;-81
2022/08/18 07:43:37;;;;;;;;;19.50;18.00;;;;;21.65;62.90;100647.19;5100896;27;45733;-81
2022/08/18 07:46:22;;;;;;;;;20.25;19.75;;;;;21.64;62.70;100639.38;5082769;27;46587;-81
2022/08/18 07:48:48;;;;;;;;;25.25;24.50;;;;;21.65;62.84;100649.00;5095919;27;46257;-81
2022/08/18 07:51:22;;;;;;;;;21.50;20.75;;;;;21.69;62.79;100650.34;5081946;27;45693;-81
2022/08/18 07:54:07;;;;;;;;;27.00;23.75;;;;;21.72;62.61;100649.97;5067035;28;45678;-81
2022/08/18 07:56:36;;;;;;;;;23.50;22.00;;;;;21.74;62.36;100651.47;5079905;27;47615;-81
2022/08/18 07:59:15;;;;;;;;;23.75;23.00;;;;;21.75;62.62;100645.09;5079048;27;45728;-80
2022/08/18 08:01:54;;;;;;;;;25.75;22.50;;;;;21.80;62.09;100641.91;5076828;28;47005;-80
2022/08/18 08:04:29;;;;;;;;;21.25;20.25;;;;;21.85;62.00;100644.03;5060420;28;45801;-81
2022/08/18 08:07:04;;;;;;;;;25.25;22.75;;;;;21.91;62.33;100656.66;5072284;27;46352;-81
2022/08/18 08:09:45;;;;;;;;;33.50;23.50;;;;;21.93;62.47;100655.44;5064597;27;46078;-79
2022/08/18 08:12:37;;;;;;;;;30.25;28.75;;;;;21.97;61.94;100647.94;5073572;27;46040;-81
2022/08/18 08:15:05;;;;;;;;;30.25;27.00;;;;;22.01;62.44;100641.22;5074509;27;45714;-79
2022/08/18 08:17:41;;;;;;;;;28.75;26.75;;;;;22.05;62.22;100637.19;5073093;27;46575;-82
2022/08/18 08:20:13;;;;;;;;;31.50;27.75;;;;;22.10;62.06;100629.44;5064346;28;46253;-81
2022/08/18 08:22:38;;;;;;;;;30.50;26.75;;;;;22.15;61.79;100619.06;5072734;28;45692;-83
2022/08/18 08:25:24;;;;;;;;;30.00;24.50;;;;;22.21;61.96;100621.00;5060159;28;45751;-81
2022/08/18 08:28:04;;;;;;;;;30.25;26.00;;;;;22.26;61.76;100618.59;5071256;27;45790;-82
2022/08/18 08:30:35;;;;;;;;;29.75;26.75;;;;;22.31;61.26;100621.53;5073806;27;46432;-81
2022/08/18 08:33:26;;;;;;;;;33.00;30.25;;;;;22.32;61.13;100614.38;5074176;27;46228;-80
2022/08/18 08:35:55;;;;;;;;;31.25;27.75;;;;;22.39;61.01;100605.44;5073034;27;45574;-80
2022/08/18 08:38:33;;;;;;;;;33.50;30.25;;;;;22.44;61.58;100611.03;5080398;27;46002;-81
2022/08/18 08:41:09;;;;;;;;;29.00;28.00;;;;;22.48;60.64;100598.97;5074628;27;46197;-77
2022/08/18 08:43:41;;;;;;;;;28.00;24.50;;;;;22.53;61.15;100614.44;5063581;27;45670;-79
2022/08/18 08:46:24;;;;;;;;;32.00;27.25;;;;;22.57;60.77;100619.22;5072329;27;45906;-82
2022/08/18 08:49:02;;;;;;;;;31.50;28.00;;;;;22.60;60.62;100618.03;5074681;27;46519;-80
2022/08/18 08:51:50;;;;;;;;;28.50;26.50;;;;;22.67;60.29;100628.78;5091810;27;46573;-81
2022/08/18 08:54:43;;;;;;;;;28.25;26.25;;;;;22.73;60.89;100630.72;5091937;27;45497;-82
2022/08/18 08:57:12;;;;;;;;;37.50;32.25;;;;;22.75;60.11;100639.41;4993662;28;45702;-83
2022/08/18 08:59:39;;;;;;;;;29.75;28.50;;;;;22.78;60.13;100639.03;4989608;28;46511;-83
2022/08/18 09:02:04;;;;;;;;;32.50;28.50;;;;;22.83;60.42;100637.47;4980873;28;45703;-81
2022/08/18 09:04:48;;;;;;;;;31.50;28.50;;;;;22.88;60.21;100636.88;4990701;28;45792;-83
2022/08/18 09:07:41;;;;;;;;;30.00;27.00;;;;;22.91;60.14;100645.34;4990447;28;45716;-82
2022/08/18 09:10:25;;;;;;;;;27.25;26.75;;;;;22.95;60.17;100645.78;4973628;28;47710;-83
2022/08/18 09:13:21;;;;;;;;;23.25;23.25;;;;;22.99;60.21;100644.41;4972602;28;47259;-80
2022/08/18 09:16:24;;;;;;;;;25.50;23.00;;;;;23.05;59.49;100645.50;4979550;28;46927;-81
2022/08/18 09:19:04;;;;;;;;;29.25;28.50;;;;;23.08;59.23;100648.63;4931645;28;45728;-80
2022/08/18 09:22:28;;;;;;;;;26.75;23.00;;;;;23.12;59.42;100655.25;4947910;28;46941;-80
2022/08/18 09:24:54;;;;;;;;;30.75;25.50;;;;;23.16;58.71;100653.03;4874880;29;46095;-82
2022/08/18 09:27:42;;;;;;;;;23.50;22.00;;;;;23.20;59.52;100649.78;4874591;29;45998;-80
2022/08/18 09:30:30;;;;;;;;;30.75;27.00;;;;;23.23;58.87;100656.59;4865442;29;45797;-82
2022/08/18 09:33:20;;;;;;;;;27.75;22.75;;;;;23.25;59.18;100641.19;4872448;28;46844;-83
2022/08/18 09:36:19;;;;;;;;;26.25;24.00;;;;;23.33;58.81;100644.56;4917006;28;46579;-82
2022/08/18 09:41:59;;;;;;;;;26.25;23.50;;;;;23.47;58.45;100642.06;4912507;28;45719;-82
2022/08/18 09:44:39;;;;;;;;;24.25;22.50;;;;;23.53;58.46;100650.16;4912095;28;45684;-82
2022/08/18 09:47:06;;;;;;;;;23.25;22.00;;;;;23.59;57.91;100654.69;4914842;28;46289;-82
2022/08/18 09:49:54;;;;;;;;;24.00;21.75;;;;;23.63;57.19;100647.97;4911997;28;45709;-83
2022/08/18 09:52:22;;;;;;;;;20.75;19.50;;;;;23.70;57.02;100653.34;4912284;28;45810;-83
2022/08/18 09:54:51;;;;;;;;;21.00;20.25;;;;;23.75;57.32;100656.31;4932196;28;45709;-82
2022/08/18 09:57:21;;;;;;;;;23.75;21.75;;;;;23.78;56.85;100654.06;5069096;27;46501;-83
2022/08/18 09:59:48;;;;;;;;;21.25;18.25;;;;;23.87;57.21;100646.69;5072444;27;45569;-82
2022/08/18 10:02:46;;;;;;;;;22.25;20.25;;;;;23.94;56.43;100652.94;5079150;27;45624;-81
2022/08/18 10:05:14;;;;;;;;;21.00;20.00;;;;;24.01;56.34;100644.97;4959394;28;46565;-83
2022/08/18 10:07:47;;;;;;;;;20.25;18.75;;;;;24.06;56.43;100647.88;4944338;28;48156;-83
2022/08/18 10:10:43;;;;;;;;;19.25;18.50;;;;;24.14;55.75;100647.72;4967989;28;45744;-83
2022/08/18 10:13:41;;;;;;;;;19.75;18.00;;;;;24.20;55.41;100637.09;4971683;28;45753;-82
2022/08/18 10:16:21;;;;;;;;;18.75;17.00;;;;;24.26;54.97;100627.44;4961941;28;46467;-80
2022/08/18 10:19:07;;;;;;;;;21.00;18.75;;;;;24.31;54.96;100616.13;4978252;28;47128;-81
2022/08/18 10:21:57;;;;;;;;;20.00;17.50;;;;;24.38;54.64;100611.63;4957506;28;46129;-79
2022/08/18 10:24:32;;;;;;;;;15.50;14.75;;;;;24.43;54.62;100620.72;4957103;28;45928;-82
2022/08/18 10:27:01;;;;;;;;;17.25;15.50;;;;;24.48;54.24;100612.09;4954574;28;46666;-78
2022/08/18 10:29:27;;;;;;;;;18.50;16.75;;;;;24.53;54.23;100602.44;4968596;28;46138;-83
2022/08/18 10:31:55;;;;;;;;;19.50;18.00;;;;;24.60;53.81;100602.47;4964965;28;45816;-82
2022/08/18 10:34:52;;;;;;;;;16.00;15.50;;;;;24.67;53.60;100603.28;4968753;28;45803;-83
2022/08/18 10:37:26;;;;;;;;;17.75;15.50;;;;;24.72;52.81;100600.88;4970048;28;45649;-82
2022/08/18 10:39:57;;;;;;;;;14.00;13.00;;;;;24.75;52.22;100595.09;4960210;28;48225;-79
2022/08/18 10:42:32;;;;;;;;;11.75;11.00;;;;;24.84;51.80;100593.88;5015362;27;45751;-83
2022/08/18 10:45:19;;;;;;;;;15.50;14.75;;;;;24.89;52.09;100604.84;5075018;27;45716;-81
2022/08/18 10:48:12;;;;;;;;;15.25;14.00;;;;;24.97;51.85;100602.00;5081374;27;46771;-79
2022/08/18 10:50:49;;;;;;;;;17.50;15.25;;;;;25.02;51.74;100593.34;5074347;27;45655;-83
2022/08/18 10:53:34;;;;;;;;;16.75;15.00;;;;;25.09;51.19;100599.56;5073572;28;45717;-79
2022/08/18 10:56:08;;;;;;;;;13.00;13.00;;;;;25.12;51.16;100593.75;5061387;27;46093;-77
2022/08/18 10:58:57;;;;;;;;;13.25;12.75;;;;;25.20;50.95;100590.91;5055797;27;47702;-78
2022/08/18 11:01:44;;;;;;;;;14.00;13.75;;;;;25.26;50.33;100594.63;5074348;27;45621;-82
2022/08/18 11:04:29;;;;;;;;;14.50;13.50;;;;;25.31;50.19;100600.19;5072833;28;45592;-82
2022/08/18 11:07:14;;;;;;;;;14.50;13.50;;;;;25.36;50.15;100598.56;5087483;27;45979;-82
2022/08/18 11:09:41;;;;;;;;;13.50;13.00;;;;;25.40;49.70;100591.75;5074215;27;45686;-82
2022/08/18 11:12:11;;;;;;;;;15.00;14.00;;;;;25.48;49.61;100593.38;5078915;27;45678;-82
2022/08/18 11:14:51;;;;;;;;;12.25;11.50;;;;;25.55;49.94;100594.19;5073638;27;45793;-78
2022/08/18 11:17:31;;;;;;;;;14.25;12.25;;;;;25.63;49.24;100593.22;5061701;27;45860;-79
2022/08/18 11:19:59;;;;;;;;;13.25;13.25;;;;;25.68;49.57;100582.69;5090174;27;46720;-80
2022/08/18 11:22:28;;;;;;;;;15.25;15.00;;;;;25.73;49.31;100583.72;5093296;27;46727;-80
2022/08/18 11:24:53;;;;;;;;;14.75;14.00;;;;;25.73;48.86;100583.72;5069795;28;46273;-81
2022/08/18 11:27:25;;;;;;;;;12.00;11.25;;;;;25.81;48.08;100590.69;5084030;27;45665;-80
2022/08/18 11:29:51;;;;;;;;;7.25;6.75;;;;;25.84;48.24;100606.41;5092933;27;46701;-81
2022/08/18 11:32:28;;;;;;;;;13.25;13.00;;;;;25.87;47.82;100598.75;5091145;27;46152;-79
2022/08/18 11:34:57;;;;;;;;;8.50;7.50;;;;;25.91;47.60;100599.19;5054545;27;45936;-81
2022/08/18 11:37:40;;;;;;;;;14.50;14.25;;;;;25.96;47.70;100588.63;5067176;27;45590;-80
2022/08/18 11:40:20;;;;;;;;;12.00;11.75;;;;;25.98;47.42;100586.53;5085258;27;45745;-81
2022/08/18 11:43:00;;;;;;;;;12.00;10.75;;;;;26.05;47.91;100576.63;5074624;27;48145;-81
2022/08/18 11:45:31;;;;;;;;;9.00;8.75;;;;;26.09;47.19;100577.84;5093177;27;45913;-83
2022/08/18 11:48:25;;;;;;;;;10.75;9.50;;;;;26.17;46.70;100587.53;5057382;27;46004;-82
2022/08/18 11:50:53;;;;;;;;;9.00;9.00;;;;;26.21;46.29;100599.50;5068319;27;47687;-80
2022/08/18 11:53:44;;;;;;;;;12.50;11.00;;;;;26.24;45.91;100604.47;5087964;27;45959;-83